createdAt,value
2017-08-15T00:00:16.391Z,1010.24
2017-08-15T00:00:42.523Z,1010.24
2017-08-15T00:01:08.695Z,1010.22
2017-08-15T00:01:34.924Z,1010.25
2017-08-15T00:02:01.100Z,1010.26
2017-08-15T00:02:27.257Z,1010.22
2017-08-15T00:02:53.452Z,1010.21
2017-08-15T00:03:19.622Z,1010.22
2017-08-15T00:03:45.771Z,1010.22
2017-08-15T00:04:11.938Z,1010.21
2017-08-15T00:04:38.050Z,1010.22
2017-08-15T00:05:04.287Z,1010.27
2017-08-15T00:05:30.476Z,1010.22
2017-08-15T00:05:56.597Z,1010.22
2017-08-15T00:06:22.710Z,1010.24
2017-08-15T00:06:48.869Z,1010.21
2017-08-15T00:07:15.020Z,1010.24
2017-08-15T00:07:41.183Z,1010.24
2017-08-15T00:08:07.329Z,1010.23
2017-08-15T00:08:33.510Z,1010.24
2017-08-15T00:08:59.702Z,1010.23
2017-08-15T00:09:25.823Z,1010.19
2017-08-15T00:09:51.992Z,1010.24
2017-08-15T00:10:18.226Z,1010.21
2017-08-15T00:10:44.350Z,1010.2
2017-08-15T00:11:10.563Z,1010.19
2017-08-15T00:11:36.718Z,1010.19
2017-08-15T00:12:02.839Z,1010.2
2017-08-15T00:12:28.981Z,1010.2
2017-08-15T00:12:55.138Z,1010.21
2017-08-15T00:13:21.298Z,1010.2
2017-08-15T00:13:47.441Z,1010.2
2017-08-15T00:14:13.589Z,1010.21
2017-08-15T00:14:39.784Z,1010.23
2017-08-15T00:15:05.903Z,1010.21
2017-08-15T00:15:32.027Z,1010.21
2017-08-15T00:15:58.158Z,1010.21
2017-08-15T00:16:24.275Z,1010.21
2017-08-15T00:16:50.394Z,1010.22
2017-08-15T00:17:16.526Z,1010.24
2017-08-15T00:17:42.684Z,1010.19
2017-08-15T00:18:08.870Z,1010.2
2017-08-15T00:18:34.988Z,1010.23
2017-08-15T00:19:01.141Z,1010.24
2017-08-15T00:19:27.305Z,1010.21
2017-08-15T00:19:53.448Z,1010.24
2017-08-15T00:20:19.592Z,1010.25
2017-08-15T00:20:45.723Z,1010.21
2017-08-15T00:21:11.887Z,1010.21
2017-08-15T00:21:38.064Z,1010.19
2017-08-15T00:22:04.227Z,1010.24
2017-08-15T00:22:30.442Z,1010.23
2017-08-15T00:22:56.587Z,1010.22
2017-08-15T00:23:22.742Z,1010.24
2017-08-15T00:23:48.911Z,1010.21
2017-08-15T00:24:15.144Z,1010.19
2017-08-15T00:24:41.264Z,1010.21
2017-08-15T00:25:07.442Z,1010.21
2017-08-15T00:25:33.595Z,1010.22
2017-08-15T00:25:59.721Z,1010.18
2017-08-15T00:26:25.893Z,1010.17
2017-08-15T00:26:52.117Z,1010.21
2017-08-15T00:27:18.312Z,1010.17
2017-08-15T00:27:44.485Z,1010.14
2017-08-15T00:28:10.641Z,1010.17
2017-08-15T00:28:36.865Z,1010.14
2017-08-15T00:29:03.041Z,1010.18
2017-08-15T00:29:29.265Z,1010.11
2017-08-15T00:29:55.378Z,1010.16
2017-08-15T00:30:21.532Z,1010.16
2017-08-15T00:30:47.761Z,1010.16
2017-08-15T00:31:13.928Z,1010.15
2017-08-15T00:31:40.112Z,1010.11
2017-08-15T00:32:06.339Z,1010.11
2017-08-15T00:32:32.485Z,1010.14
2017-08-15T00:32:58.605Z,1010.12
2017-08-15T00:33:24.804Z,1010.14
2017-08-15T00:33:50.922Z,1010.14
2017-08-15T00:34:17.064Z,1010.11
2017-08-15T00:34:43.196Z,1010.11
2017-08-15T00:35:09.408Z,1010.08
2017-08-15T00:35:35.566Z,1010.07
2017-08-15T00:36:01.716Z,1010.06
2017-08-15T00:36:27.863Z,1010.1
2017-08-15T00:36:54.025Z,1010.07
2017-08-15T00:37:20.171Z,1010.07
2017-08-15T00:37:46.317Z,1010.06
2017-08-15T00:38:12.452Z,1010.05
2017-08-15T00:38:38.608Z,1010.05
2017-08-15T00:39:04.718Z,1010.07
2017-08-15T00:39:30.853Z,1010.07
2017-08-15T00:39:57.017Z,1010.07
2017-08-15T00:40:23.163Z,1010.08
2017-08-15T00:40:49.316Z,1010.07
2017-08-15T00:41:15.458Z,1010.05
2017-08-15T00:41:41.654Z,1010.05
2017-08-15T00:42:07.775Z,1010.05
2017-08-15T00:42:33.890Z,1010.04
2017-08-15T00:43:00.115Z,1010.05
2017-08-15T00:43:26.272Z,1010.03
2017-08-15T00:43:52.448Z,1010.05
2017-08-15T00:44:18.608Z,1010.03
2017-08-15T00:44:44.801Z,1010.03
2017-08-15T00:45:10.972Z,1010.06
2017-08-15T00:45:37.095Z,1010.07
2017-08-15T00:46:03.248Z,1010.05
2017-08-15T00:46:29.408Z,1010.07
2017-08-15T00:46:55.566Z,1010.03
2017-08-15T00:47:21.765Z,1010.06
2017-08-15T00:47:47.956Z,1010.05
2017-08-15T00:48:14.152Z,1010.05
2017-08-15T00:48:40.354Z,1010.06
2017-08-15T00:49:06.503Z,1010.04
2017-08-15T00:49:32.693Z,1010.05
2017-08-15T00:49:58.842Z,1010.04
2017-08-15T00:50:24.992Z,1010.04
2017-08-15T00:50:51.160Z,1010.05
2017-08-15T00:51:17.306Z,1010.05
2017-08-15T00:51:43.500Z,1010.04
2017-08-15T00:52:09.640Z,1010.06
2017-08-15T00:52:35.767Z,1010.04
2017-08-15T00:53:02.000Z,1010.06
2017-08-15T00:53:28.139Z,1010.02
2017-08-15T00:53:54.315Z,1010.08
2017-08-15T00:54:20.478Z,1010.01
2017-08-15T00:54:46.625Z,1010.04
2017-08-15T00:55:12.768Z,1010.04
2017-08-15T00:55:38.968Z,1009.99
2017-08-15T00:56:05.121Z,1009.96
2017-08-15T00:56:31.298Z,1009.99
2017-08-15T00:56:57.486Z,1009.97
2017-08-15T00:57:23.641Z,1009.9
2017-08-15T00:57:49.784Z,1009.95
2017-08-15T00:58:15.910Z,1009.92
2017-08-15T00:58:42.048Z,1009.93
2017-08-15T00:59:08.214Z,1009.91
2017-08-15T00:59:34.371Z,1009.95
2017-08-15T01:00:00.599Z,1009.93
2017-08-15T01:00:26.808Z,1009.89
2017-08-15T01:00:52.960Z,1009.9
2017-08-15T01:01:19.153Z,1009.91
2017-08-15T01:01:45.302Z,1009.91
2017-08-15T01:02:11.448Z,1009.89
2017-08-15T01:02:37.608Z,1009.92
2017-08-15T01:03:03.799Z,1009.88
2017-08-15T01:03:29.962Z,1009.91
2017-08-15T01:03:56.076Z,1009.89
2017-08-15T01:04:22.194Z,1009.89
2017-08-15T01:04:48.358Z,1009.9
2017-08-15T01:05:14.508Z,1009.89
2017-08-15T01:05:40.647Z,1009.92
2017-08-15T01:06:06.815Z,1009.93
2017-08-15T01:06:32.961Z,1009.91
2017-08-15T01:06:59.105Z,1009.91
2017-08-15T01:07:25.265Z,1009.9
2017-08-15T01:07:51.393Z,1009.91
2017-08-15T01:08:17.604Z,1009.91
2017-08-15T01:08:43.724Z,1009.92
2017-08-15T01:09:09.927Z,1009.93
2017-08-15T01:09:36.095Z,1009.92
2017-08-15T01:10:02.273Z,1009.92
2017-08-15T01:10:28.445Z,1009.93
2017-08-15T01:10:54.605Z,1009.91
2017-08-15T01:11:20.762Z,1009.93
2017-08-15T01:11:46.875Z,1009.91
2017-08-15T01:12:13.069Z,1009.96
2017-08-15T01:12:39.230Z,1009.89
2017-08-15T01:13:05.400Z,1009.95
2017-08-15T01:13:31.552Z,1009.95
2017-08-15T01:13:57.668Z,1009.91
2017-08-15T01:14:23.893Z,1009.92
2017-08-15T01:14:50.046Z,1009.91
2017-08-15T01:15:16.191Z,1009.87
2017-08-15T01:15:42.374Z,1009.91
2017-08-15T01:16:08.538Z,1009.9
2017-08-15T01:16:34.680Z,1009.87
2017-08-15T01:17:00.838Z,1009.89
2017-08-15T01:17:27.037Z,1009.85
2017-08-15T01:17:53.212Z,1009.9
2017-08-15T01:18:19.331Z,1009.91
2017-08-15T01:18:45.526Z,1009.9
2017-08-15T01:19:11.678Z,1009.91
2017-08-15T01:19:37.808Z,1009.88
2017-08-15T01:20:03.976Z,1009.86
2017-08-15T01:20:30.161Z,1009.85
2017-08-15T01:20:56.325Z,1009.82
2017-08-15T01:21:22.440Z,1009.86
2017-08-15T01:21:48.589Z,1009.86
2017-08-15T01:22:14.752Z,1009.84
2017-08-15T01:22:40.868Z,1009.83
2017-08-15T01:23:07.013Z,1009.85
2017-08-15T01:23:33.208Z,1009.88
2017-08-15T01:23:59.332Z,1009.88
2017-08-15T01:24:25.478Z,1009.88
2017-08-15T01:24:51.669Z,1009.87
2017-08-15T01:25:17.845Z,1009.9
2017-08-15T01:25:44.008Z,1009.9
2017-08-15T01:26:10.221Z,1009.91
2017-08-15T01:26:36.393Z,1009.89
2017-08-15T01:27:02.627Z,1009.9
2017-08-15T01:27:28.808Z,1009.93
2017-08-15T01:27:54.979Z,1009.94
2017-08-15T01:28:21.107Z,1009.93
2017-08-15T01:28:47.296Z,1009.94
2017-08-15T01:29:13.437Z,1009.92
2017-08-15T01:29:39.630Z,1009.98
2017-08-15T01:30:05.790Z,1009.93
2017-08-15T01:30:31.935Z,1009.97
2017-08-15T01:30:58.055Z,1009.93
2017-08-15T01:31:24.198Z,1009.99
2017-08-15T01:31:50.367Z,1009.96
2017-08-15T01:32:16.562Z,1009.97
2017-08-15T01:32:42.707Z,1010
2017-08-15T01:33:08.832Z,1009.96
2017-08-15T01:33:35.027Z,1009.96
2017-08-15T01:34:01.168Z,1010
2017-08-15T01:34:27.354Z,1009.97
2017-08-15T01:34:53.512Z,1009.92
2017-08-15T01:35:19.692Z,1009.96
2017-08-15T01:35:45.811Z,1009.96
2017-08-15T01:36:11.938Z,1009.93
2017-08-15T01:36:38.066Z,1009.93
2017-08-15T01:37:04.226Z,1009.89
2017-08-15T01:37:30.362Z,1009.86
2017-08-15T01:37:56.489Z,1009.89
2017-08-15T01:38:22.653Z,1009.9
2017-08-15T01:38:48.796Z,1009.87
2017-08-15T01:39:14.948Z,1009.85
2017-08-15T01:39:41.109Z,1009.86
2017-08-15T01:40:07.286Z,1009.88
2017-08-15T01:40:33.457Z,1009.83
2017-08-15T01:40:59.626Z,1009.87
2017-08-15T01:41:25.781Z,1009.84
2017-08-15T01:41:51.917Z,1009.83
2017-08-15T01:42:18.114Z,1009.85
2017-08-15T01:42:44.237Z,1009.86
2017-08-15T01:43:10.412Z,1009.83
2017-08-15T01:43:36.599Z,1009.85
2017-08-15T01:44:02.732Z,1009.83
2017-08-15T01:44:28.927Z,1009.83
2017-08-15T01:44:55.052Z,1009.82
2017-08-15T01:45:21.205Z,1009.83
2017-08-15T01:45:47.380Z,1009.81
2017-08-15T01:46:13.498Z,1009.79
2017-08-15T01:46:39.664Z,1009.79
2017-08-15T01:47:05.840Z,1009.79
2017-08-15T01:47:31.998Z,1009.83
2017-08-15T01:47:58.142Z,1009.82
2017-08-15T01:48:24.322Z,1009.8
2017-08-15T01:48:50.484Z,1009.79
2017-08-15T01:49:16.599Z,1009.77
2017-08-15T01:49:42.809Z,1009.75
2017-08-15T01:50:09.030Z,1009.76
2017-08-15T01:50:35.185Z,1009.78
2017-08-15T01:51:01.359Z,1009.78
2017-08-15T01:51:27.589Z,1009.76
2017-08-15T01:51:53.772Z,1009.75
2017-08-15T01:52:19.885Z,1009.76
2017-08-15T01:52:46.078Z,1009.72
2017-08-15T01:53:12.225Z,1009.73
2017-08-15T01:53:38.353Z,1009.74
2017-08-15T01:54:04.470Z,1009.7
2017-08-15T01:54:30.619Z,1009.72
2017-08-15T01:54:56.814Z,1009.74
2017-08-15T01:55:23.031Z,1009.73
2017-08-15T01:55:49.173Z,1009.73
2017-08-15T01:56:15.308Z,1009.7
2017-08-15T01:56:41.459Z,1009.71
2017-08-15T01:57:07.632Z,1009.7
2017-08-15T01:57:33.789Z,1009.66
2017-08-15T01:57:59.952Z,1009.67
2017-08-15T01:58:26.098Z,1009.65
2017-08-15T01:58:52.287Z,1009.66
2017-08-15T01:59:18.490Z,1009.61
2017-08-15T01:59:44.712Z,1009.62
2017-08-15T02:00:10.871Z,1009.63
2017-08-15T02:00:37.049Z,1009.62
2017-08-15T02:01:03.267Z,1009.59
2017-08-15T02:01:29.491Z,1009.63
2017-08-15T02:01:55.637Z,1009.61
2017-08-15T02:02:21.787Z,1009.56
2017-08-15T02:02:47.979Z,1009.58
2017-08-15T02:03:14.152Z,1009.64
2017-08-15T02:03:40.308Z,1009.58
2017-08-15T02:04:06.499Z,1009.59
2017-08-15T02:04:32.651Z,1009.61
2017-08-15T02:04:58.793Z,1009.59
2017-08-15T02:05:24.991Z,1009.61
2017-08-15T02:05:51.169Z,1009.59
2017-08-15T02:06:17.376Z,1009.58
2017-08-15T02:06:43.536Z,1009.59
2017-08-15T02:07:09.659Z,1009.59
2017-08-15T02:07:35.829Z,1009.61
2017-08-15T02:08:01.962Z,1009.58
2017-08-15T02:08:28.083Z,1009.62
2017-08-15T02:08:54.221Z,1009.57
2017-08-15T02:09:20.404Z,1009.59
2017-08-15T02:09:46.550Z,1009.62
2017-08-15T02:10:12.716Z,1009.59
2017-08-15T02:10:38.838Z,1009.6
2017-08-15T02:11:05.015Z,1009.56
2017-08-15T02:11:31.173Z,1009.58
2017-08-15T02:11:57.405Z,1009.58
2017-08-15T02:12:23.578Z,1009.59
2017-08-15T02:12:49.769Z,1009.6
2017-08-15T02:13:15.964Z,1009.62
2017-08-15T02:13:42.144Z,1009.6
2017-08-15T02:14:08.320Z,1009.6
2017-08-15T02:14:34.487Z,1009.64
2017-08-15T02:15:00.621Z,1009.6
2017-08-15T02:15:26.761Z,1009.62
2017-08-15T02:15:52.933Z,1009.6
2017-08-15T02:16:19.113Z,1009.57
2017-08-15T02:16:45.276Z,1009.58
2017-08-15T02:17:11.417Z,1009.6
2017-08-15T02:17:37.569Z,1009.52
2017-08-15T02:18:03.761Z,1009.54
2017-08-15T02:18:29.911Z,1009.52
2017-08-15T02:18:56.022Z,1009.57
2017-08-15T02:19:22.219Z,1009.53
2017-08-15T02:19:48.372Z,1009.53
2017-08-15T02:20:14.538Z,1009.54
2017-08-15T02:20:40.702Z,1009.55
2017-08-15T02:21:06.852Z,1009.52
2017-08-15T02:21:32.984Z,1009.55
2017-08-15T02:21:59.144Z,1009.53
2017-08-15T02:22:25.501Z,1009.53
2017-08-15T02:22:51.696Z,1009.56
2017-08-15T02:23:17.870Z,1009.55
2017-08-15T02:23:44.031Z,1009.55
2017-08-15T02:24:10.170Z,1009.54
2017-08-15T02:24:36.313Z,1009.52
2017-08-15T02:25:02.467Z,1009.52
2017-08-15T02:25:28.583Z,1009.56
2017-08-15T02:25:54.747Z,1009.52
2017-08-15T02:26:20.939Z,1009.54
2017-08-15T02:26:47.118Z,1009.55
2017-08-15T02:27:13.291Z,1009.56
2017-08-15T02:27:39.413Z,1009.59
2017-08-15T02:28:05.592Z,1009.56
2017-08-15T02:28:31.707Z,1009.56
2017-08-15T02:28:57.827Z,1009.57
2017-08-15T02:29:23.984Z,1009.6
2017-08-15T02:29:50.206Z,1009.57
2017-08-15T02:30:16.323Z,1009.6
2017-08-15T02:30:42.478Z,1009.59
2017-08-15T02:31:08.586Z,1009.52
2017-08-15T02:31:34.735Z,1009.54
2017-08-15T02:32:00.877Z,1009.56
2017-08-15T02:32:27.095Z,1009.56
2017-08-15T02:32:53.280Z,1009.56
2017-08-15T02:33:19.443Z,1009.57
2017-08-15T02:33:45.616Z,1009.57
2017-08-15T02:34:11.833Z,1009.57
2017-08-15T02:34:37.970Z,1009.56
2017-08-15T02:35:04.113Z,1009.57
2017-08-15T02:35:30.270Z,1009.54
2017-08-15T02:35:56.411Z,1009.56
2017-08-15T02:36:22.584Z,1009.56
2017-08-15T02:36:48.744Z,1009.59
2017-08-15T02:37:14.861Z,1009.58
2017-08-15T02:37:41.040Z,1009.59
2017-08-15T02:38:07.235Z,1009.56
2017-08-15T02:38:33.345Z,1009.57
2017-08-15T02:38:59.505Z,1009.6
2017-08-15T02:39:25.645Z,1009.56
2017-08-15T02:39:51.784Z,1009.59
2017-08-15T02:40:17.974Z,1009.59
2017-08-15T02:40:44.118Z,1009.54
2017-08-15T02:41:10.285Z,1009.55
2017-08-15T02:41:36.466Z,1009.54
2017-08-15T02:42:02.613Z,1009.54
2017-08-15T02:42:28.782Z,1009.57
2017-08-15T02:42:54.930Z,1009.52
2017-08-15T02:43:21.094Z,1009.52
2017-08-15T02:43:47.287Z,1009.54
2017-08-15T02:44:13.402Z,1009.5
2017-08-15T02:44:39.514Z,1009.51
2017-08-15T02:45:05.729Z,1009.49
2017-08-15T02:45:31.973Z,1009.5
2017-08-15T02:45:58.082Z,1009.46
2017-08-15T02:46:24.229Z,1009.47
2017-08-15T02:46:50.412Z,1009.48
2017-08-15T02:47:16.551Z,1009.46
2017-08-15T02:47:42.730Z,1009.5
2017-08-15T02:48:08.884Z,1009.48
2017-08-15T02:48:35.052Z,1009.47
2017-08-15T02:49:01.175Z,1009.49
2017-08-15T02:49:27.339Z,1009.53
2017-08-15T02:49:53.471Z,1009.51
2017-08-15T02:50:19.660Z,1009.49
2017-08-15T02:50:45.768Z,1009.5
2017-08-15T02:51:11.887Z,1009.47
2017-08-15T02:51:38.044Z,1009.47
2017-08-15T02:52:04.204Z,1009.51
2017-08-15T02:52:30.322Z,1009.49
2017-08-15T02:52:56.507Z,1009.53
2017-08-15T02:53:22.657Z,1009.53
2017-08-15T02:53:48.795Z,1009.52
2017-08-15T02:54:14.943Z,1009.51
2017-08-15T02:54:41.092Z,1009.54
2017-08-15T02:55:07.276Z,1009.54
2017-08-15T02:55:33.454Z,1009.55
2017-08-15T02:55:59.598Z,1009.5
2017-08-15T02:56:25.753Z,1009.5
2017-08-15T02:56:51.923Z,1009.48
2017-08-15T02:57:18.066Z,1009.51
2017-08-15T02:57:44.287Z,1009.52
2017-08-15T02:58:10.404Z,1009.51
2017-08-15T02:58:36.512Z,1009.49
2017-08-15T02:59:02.663Z,1009.47
2017-08-15T02:59:28.812Z,1009.49
2017-08-15T02:59:54.992Z,1009.5
2017-08-15T03:00:21.136Z,1009.52
2017-08-15T03:00:47.276Z,1009.51
2017-08-15T03:01:13.435Z,1009.55
2017-08-15T03:01:39.585Z,1009.52
2017-08-15T03:02:05.701Z,1009.51
2017-08-15T03:02:31.878Z,1009.52
2017-08-15T03:02:58.028Z,1009.49
2017-08-15T03:03:24.139Z,1009.5
2017-08-15T03:03:50.292Z,1009.51
2017-08-15T03:04:16.446Z,1009.52
2017-08-15T03:04:42.552Z,1009.48
2017-08-15T03:05:08.785Z,1009.49
2017-08-15T03:05:34.926Z,1009.48
2017-08-15T03:06:01.082Z,1009.49
2017-08-15T03:06:27.202Z,1009.47
2017-08-15T03:06:53.337Z,1009.48
2017-08-15T03:07:19.524Z,1009.5
2017-08-15T03:07:45.676Z,1009.47
2017-08-15T03:08:11.787Z,1009.48
2017-08-15T03:08:37.926Z,1009.45
2017-08-15T03:09:04.049Z,1009.46
2017-08-15T03:09:30.159Z,1009.45
2017-08-15T03:09:56.305Z,1009.41
2017-08-15T03:10:22.524Z,1009.43
2017-08-15T03:10:48.636Z,1009.43
2017-08-15T03:11:14.774Z,1009.47
2017-08-15T03:11:40.935Z,1009.44
2017-08-15T03:12:07.075Z,1009.44
2017-08-15T03:12:33.272Z,1009.47
2017-08-15T03:12:59.427Z,1009.43
2017-08-15T03:13:25.607Z,1009.49
2017-08-15T03:13:51.742Z,1009.5
2017-08-15T03:14:17.893Z,1009.47
2017-08-15T03:14:44.076Z,1009.46
2017-08-15T03:15:10.217Z,1009.44
2017-08-15T03:15:36.358Z,1009.48
2017-08-15T03:16:02.481Z,1009.44
2017-08-15T03:16:28.625Z,1009.46
2017-08-15T03:16:54.839Z,1009.46
2017-08-15T03:17:20.948Z,1009.45
2017-08-15T03:17:47.103Z,1009.48
2017-08-15T03:18:13.292Z,1009.48
2017-08-15T03:18:39.452Z,1009.49
2017-08-15T03:19:05.598Z,1009.47
2017-08-15T03:19:31.755Z,1009.45
2017-08-15T03:19:57.867Z,1009.44
2017-08-15T03:20:24.044Z,1009.45
2017-08-15T03:20:50.231Z,1009.47
2017-08-15T03:21:16.402Z,1009.44
2017-08-15T03:21:42.575Z,1009.43
2017-08-15T03:22:08.758Z,1009.44
2017-08-15T03:22:34.908Z,1009.43
2017-08-15T03:23:01.068Z,1009.46
2017-08-15T03:23:27.261Z,1009.44
2017-08-15T03:23:53.399Z,1009.41
2017-08-15T03:24:19.556Z,1009.41
2017-08-15T03:24:45.729Z,1009.43
2017-08-15T03:25:11.894Z,1009.41
2017-08-15T03:25:38.112Z,1009.41
2017-08-15T03:26:04.282Z,1009.42
2017-08-15T03:26:30.392Z,1009.4
2017-08-15T03:26:56.577Z,1009.37
2017-08-15T03:27:22.727Z,1009.37
2017-08-15T03:27:48.875Z,1009.38
2017-08-15T03:28:14.989Z,1009.4
2017-08-15T03:28:41.181Z,1009.39
2017-08-15T03:29:07.382Z,1009.4
2017-08-15T03:29:33.558Z,1009.38
2017-08-15T03:29:59.721Z,1009.37
2017-08-15T03:30:25.974Z,1009.41
2017-08-15T03:30:52.221Z,1009.36
2017-08-15T03:31:18.392Z,1009.37
2017-08-15T03:31:44.514Z,1009.42
2017-08-15T03:32:10.673Z,1009.37
2017-08-15T03:32:36.833Z,1009.4
2017-08-15T03:33:02.954Z,1009.41
2017-08-15T03:33:29.102Z,1009.39
2017-08-15T03:33:55.315Z,1009.38
2017-08-15T03:34:21.494Z,1009.42
2017-08-15T03:34:47.630Z,1009.4
2017-08-15T03:35:13.841Z,1009.41
2017-08-15T03:35:39.994Z,1009.41
2017-08-15T03:36:06.212Z,1009.42
2017-08-15T03:36:32.359Z,1009.46
2017-08-15T03:36:58.483Z,1009.46
2017-08-15T03:37:24.655Z,1009.42
2017-08-15T03:37:50.830Z,1009.43
2017-08-15T03:38:16.986Z,1009.46
2017-08-15T03:38:43.154Z,1009.44
2017-08-15T03:39:09.312Z,1009.49
2017-08-15T03:39:35.445Z,1009.45
2017-08-15T03:40:01.600Z,1009.46
2017-08-15T03:40:27.787Z,1009.43
2017-08-15T03:40:53.899Z,1009.47
2017-08-15T03:41:20.043Z,1009.47
2017-08-15T03:41:46.203Z,1009.44
2017-08-15T03:42:12.318Z,1009.46
2017-08-15T03:42:38.513Z,1009.44
2017-08-15T03:43:04.701Z,1009.42
2017-08-15T03:43:30.881Z,1009.44
2017-08-15T03:43:57.023Z,1009.46
2017-08-15T03:44:23.175Z,1009.48
2017-08-15T03:44:49.312Z,1009.47
2017-08-15T03:45:15.443Z,1009.48
2017-08-15T03:45:41.556Z,1009.5
2017-08-15T03:46:07.665Z,1009.47
2017-08-15T03:46:33.825Z,1009.47
2017-08-15T03:46:59.940Z,1009.44
2017-08-15T03:47:26.104Z,1009.44
2017-08-15T03:47:52.287Z,1009.47
2017-08-15T03:48:18.502Z,1009.43
2017-08-15T03:48:44.637Z,1009.47
2017-08-15T03:49:10.787Z,1009.47
2017-08-15T03:49:36.975Z,1009.44
2017-08-15T03:50:03.148Z,1009.46
2017-08-15T03:50:29.320Z,1009.46
2017-08-15T03:50:55.513Z,1009.44
2017-08-15T03:51:21.638Z,1009.46
2017-08-15T03:51:47.787Z,1009.43
2017-08-15T03:52:13.925Z,1009.41
2017-08-15T03:52:40.048Z,1009.44
2017-08-15T03:53:06.241Z,1009.41
2017-08-15T03:53:32.373Z,1009.43
2017-08-15T03:53:58.525Z,1009.42
2017-08-15T03:54:24.678Z,1009.41
2017-08-15T03:54:50.823Z,1009.39
2017-08-15T03:55:16.969Z,1009.39
2017-08-15T03:55:43.160Z,1009.4
2017-08-15T03:56:09.275Z,1009.41
2017-08-15T03:56:35.405Z,1009.43
2017-08-15T03:57:01.566Z,1009.41
2017-08-15T03:57:27.765Z,1009.44
2017-08-15T03:57:53.899Z,1009.46
2017-08-15T03:58:20.087Z,1009.45
2017-08-15T03:58:46.269Z,1009.46
2017-08-15T03:59:12.406Z,1009.45
2017-08-15T03:59:38.558Z,1009.47
2017-08-15T04:00:04.718Z,1009.44
2017-08-15T04:00:30.886Z,1009.45
2017-08-15T04:00:57.087Z,1009.46
2017-08-15T04:01:23.232Z,1009.43
2017-08-15T04:01:49.389Z,1009.43
2017-08-15T04:02:15.540Z,1009.44
2017-08-15T04:02:41.682Z,1009.44
2017-08-15T04:03:07.866Z,1009.43
2017-08-15T04:03:33.993Z,1009.46
2017-08-15T04:04:00.181Z,1009.46
2017-08-15T04:04:26.391Z,1009.44
2017-08-15T04:04:52.517Z,1009.47
2017-08-15T04:05:18.653Z,1009.47
2017-08-15T04:05:44.823Z,1009.44
2017-08-15T04:06:10.953Z,1009.42
2017-08-15T04:06:37.095Z,1009.49
2017-08-15T04:07:03.276Z,1009.47
2017-08-15T04:07:29.388Z,1009.46
2017-08-15T04:07:55.533Z,1009.46
2017-08-15T04:08:21.692Z,1009.45
2017-08-15T04:08:47.860Z,1009.45
2017-08-15T04:09:13.978Z,1009.42
2017-08-15T04:09:40.161Z,1009.44
2017-08-15T04:10:06.329Z,1009.43
2017-08-15T04:10:32.492Z,1009.44
2017-08-15T04:10:58.686Z,1009.43
2017-08-15T04:11:24.800Z,1009.42
2017-08-15T04:11:50.965Z,1009.39
2017-08-15T04:12:17.127Z,1009.43
2017-08-15T04:12:43.369Z,1009.39
2017-08-15T04:13:09.508Z,1009.44
2017-08-15T04:13:35.652Z,1009.41
2017-08-15T04:14:01.787Z,1009.44
2017-08-15T04:14:27.948Z,1009.39
2017-08-15T04:14:54.160Z,1009.38
2017-08-15T04:15:20.323Z,1009.39
2017-08-15T04:15:46.513Z,1009.39
2017-08-15T04:16:12.661Z,1009.4
2017-08-15T04:16:38.802Z,1009.39
2017-08-15T04:17:04.925Z,1009.4
2017-08-15T04:17:31.083Z,1009.37
2017-08-15T04:17:57.226Z,1009.39
2017-08-15T04:18:23.341Z,1009.37
2017-08-15T04:18:49.448Z,1009.37
2017-08-15T04:19:15.606Z,1009.4
2017-08-15T04:19:41.757Z,1009.4
2017-08-15T04:20:07.949Z,1009.4
2017-08-15T04:20:34.071Z,1009.33
2017-08-15T04:21:00.200Z,1009.36
2017-08-15T04:21:26.360Z,1009.37
2017-08-15T04:21:52.507Z,1009.37
2017-08-15T04:22:18.722Z,1009.34
2017-08-15T04:22:44.899Z,1009.37
2017-08-15T04:23:11.040Z,1009.38
2017-08-15T04:23:37.191Z,1009.37
2017-08-15T04:24:03.398Z,1009.35
2017-08-15T04:24:29.559Z,1009.38
2017-08-15T04:24:55.690Z,1009.34
2017-08-15T04:25:21.900Z,1009.32
2017-08-15T04:25:48.027Z,1009.35
2017-08-15T04:26:14.164Z,1009.34
2017-08-15T04:26:40.362Z,1009.33
2017-08-15T04:27:06.549Z,1009.33
2017-08-15T04:27:32.730Z,1009.3
2017-08-15T04:27:58.839Z,1009.32
2017-08-15T04:28:24.998Z,1009.29
2017-08-15T04:28:51.143Z,1009.32
2017-08-15T04:29:17.327Z,1009.28
2017-08-15T04:29:43.494Z,1009.28
2017-08-15T04:30:09.641Z,1009.28
2017-08-15T04:30:35.829Z,1009.25
2017-08-15T04:31:01.947Z,1009.25
2017-08-15T04:31:28.080Z,1009.23
2017-08-15T04:31:54.209Z,1009.24
2017-08-15T04:32:20.354Z,1009.21
2017-08-15T04:32:46.462Z,1009.22
2017-08-15T04:33:12.653Z,1009.21
2017-08-15T04:33:38.831Z,1009.24
2017-08-15T04:34:04.995Z,1009.23
2017-08-15T04:34:31.120Z,1009.19
2017-08-15T04:34:57.316Z,1009.19
2017-08-15T04:35:23.501Z,1009.21
2017-08-15T04:35:49.678Z,1009.17
2017-08-15T04:36:15.843Z,1009.15
2017-08-15T04:36:42.028Z,1009.22
2017-08-15T04:37:08.240Z,1009.18
2017-08-15T04:37:34.380Z,1009.19
2017-08-15T04:38:00.502Z,1009.16
2017-08-15T04:38:26.631Z,1009.17
2017-08-15T04:38:52.767Z,1009.16
2017-08-15T04:39:18.892Z,1009.16
2017-08-15T04:39:45.111Z,1009.18
2017-08-15T04:40:11.307Z,1009.21
2017-08-15T04:40:37.537Z,1009.16
2017-08-15T04:41:03.688Z,1009.15
2017-08-15T04:41:29.888Z,1009.18
2017-08-15T04:41:56.029Z,1009.13
2017-08-15T04:42:22.218Z,1009.11
2017-08-15T04:42:48.401Z,1009.15
2017-08-15T04:43:14.539Z,1009.12
2017-08-15T04:43:40.695Z,1009.16
2017-08-15T04:44:06.844Z,1009.11
2017-08-15T04:44:32.986Z,1009.14
2017-08-15T04:44:59.165Z,1009.14
2017-08-15T04:45:25.324Z,1009.13
2017-08-15T04:45:51.436Z,1009.12
2017-08-15T04:46:17.587Z,1009.16
2017-08-15T04:46:43.725Z,1009.1
2017-08-15T04:47:09.882Z,1009.12
2017-08-15T04:47:36.078Z,1009.08
2017-08-15T04:48:02.635Z,1009.1
2017-08-15T04:48:28.785Z,1009.13
2017-08-15T04:48:54.936Z,1009.1
2017-08-15T04:49:21.070Z,1009.12
2017-08-15T04:49:47.251Z,1009.14
2017-08-15T04:50:13.386Z,1009.1
2017-08-15T04:50:39.563Z,1009.08
2017-08-15T04:51:05.713Z,1009.11
2017-08-15T04:51:31.886Z,1009.05
2017-08-15T04:51:58.032Z,1009.09
2017-08-15T04:52:24.216Z,1009.05
2017-08-15T04:52:50.352Z,1009.04
2017-08-15T04:53:16.556Z,1009.08
2017-08-15T04:53:42.711Z,1009.09
2017-08-15T04:54:08.856Z,1009.04
2017-08-15T04:54:34.998Z,1009.05
2017-08-15T04:55:01.199Z,1009.05
2017-08-15T04:55:27.374Z,1009.03
2017-08-15T04:55:53.521Z,1009.06
2017-08-15T04:56:19.677Z,1009.04
2017-08-15T04:56:45.826Z,1009.01
2017-08-15T04:57:12.029Z,1009.03
2017-08-15T04:57:38.196Z,1009.04
2017-08-15T04:58:04.393Z,1009.04
2017-08-15T04:58:30.580Z,1009.03
2017-08-15T04:58:56.776Z,1008.98
2017-08-15T04:59:22.866Z,1009.06
2017-08-15T04:59:49.026Z,1009.04
2017-08-15T05:00:15.146Z,1009.08
2017-08-15T05:00:41.286Z,1009.04
2017-08-15T05:01:07.506Z,1009.08
2017-08-15T05:01:33.650Z,1009.06
2017-08-15T05:01:59.819Z,1009.05
2017-08-15T05:02:25.996Z,1009.07
2017-08-15T05:02:52.106Z,1009.06
2017-08-15T05:03:18.329Z,1009.07
2017-08-15T05:03:44.535Z,1008.98
2017-08-15T05:04:10.674Z,1009.07
2017-08-15T05:04:36.857Z,1009.03
2017-08-15T05:05:03.045Z,1009.09
2017-08-15T05:05:29.263Z,1009.08
2017-08-15T05:05:55.387Z,1009.04
2017-08-15T05:06:21.546Z,1009.05
2017-08-15T05:06:47.684Z,1009.06
2017-08-15T05:07:13.858Z,1009.08
2017-08-15T05:07:40.021Z,1009.06
2017-08-15T05:08:06.221Z,1009.07
2017-08-15T05:08:32.377Z,1009.09
2017-08-15T05:08:58.540Z,1009.05
2017-08-15T05:09:24.720Z,1009.06
2017-08-15T05:09:50.909Z,1009.05
2017-08-15T05:10:17.044Z,1009.04
2017-08-15T05:10:43.199Z,1009.05
2017-08-15T05:11:09.350Z,1009.04
2017-08-15T05:11:35.522Z,1009.08
2017-08-15T05:12:01.662Z,1009.06
2017-08-15T05:12:27.851Z,1009.06
2017-08-15T05:12:54.022Z,1009.06
2017-08-15T05:13:20.187Z,1009.04
2017-08-15T05:13:46.341Z,1009.09
2017-08-15T05:14:12.460Z,1009.06
2017-08-15T05:14:38.654Z,1009.04
2017-08-15T05:15:04.792Z,1009.03
2017-08-15T05:15:30.956Z,1009.05
2017-08-15T05:15:57.142Z,1009.03
2017-08-15T05:16:23.319Z,1009.07
2017-08-15T05:16:49.428Z,1009.03
2017-08-15T05:17:15.589Z,1009.04